sensor_id;sensor_type;location;lat;lon;timestamp;P1;durP1;ratioP1;P2;durP2;ratioP2
37001;SDS011;22913;51.910;8.374;2023-05-10T00:02:44;6.73;;;6.23;;
37001;SDS011;22913;51.910;8.374;2023-05-10T00:05:30;6.30;;;5.80;;
37001;SDS011;22913;51.910;8.374;2023-05-10T00:08:16;6.53;;;5.97;;
37001;SDS011;22913;51.910;8.374;2023-05-10T00:11:02;7.03;;;6.40;;
37001;SDS011;22913;51.910;8.374;2023-05-10T00:13:48;6.77;;;6.27;;
37001;SDS011;22913;51.910;8.374;2023-05-10T00:16:33;6.27;;;5.77;;
37001;SDS011;22913;51.910;8.374;2023-05-10T00:19:21;11.80;;;6.47;;
37001;SDS011;22913;51.910;8.374;2023-05-10T00:22:06;6.63;;;6.10;;
37001;SDS011;22913;51.910;8.374;2023-05-10T00:24:52;7.13;;;6.53;;
37001;SDS011;22913;51.910;8.374;2023-05-10T00:27:37;6.83;;;6.33;;
37001;SDS011;22913;51.910;8.374;2023-05-10T00:30:23;7.20;;;6.53;;
37001;SDS011;22913;51.910;8.374;2023-05-10T00:33:09;7.30;;;6.70;;
37001;SDS011;22913;51.910;8.374;2023-05-10T00:35:56;8.20;;;7.50;;
37001;SDS011;22913;51.910;8.374;2023-05-10T00:38:42;7.93;;;7.30;;
37001;SDS011;22913;51.910;8.374;2023-05-10T00:41:27;7.53;;;6.93;;
37001;SDS011;22913;51.910;8.374;2023-05-10T00:44:13;8.00;;;7.33;;
37001;SDS011;22913;51.910;8.374;2023-05-10T00:46:58;7.97;;;7.37;;
37001;SDS011;22913;51.910;8.374;2023-05-10T00:49:44;7.73;;;7.03;;
37001;SDS011;22913;51.910;8.374;2023-05-10T00:52:32;8.33;;;7.63;;
37001;SDS011;22913;51.910;8.374;2023-05-10T00:55:17;7.90;;;7.30;;
37001;SDS011;22913;51.910;8.374;2023-05-10T00:58:04;7.73;;;7.03;;
37001;SDS011;22913;51.910;8.374;2023-05-10T01:00:50;8.50;;;7.73;;
37001;SDS011;22913;51.910;8.374;2023-05-10T01:03:37;8.20;;;7.50;;
37001;SDS011;22913;51.910;8.374;2023-05-10T01:06:24;8.37;;;7.67;;
37001;SDS011;22913;51.910;8.374;2023-05-10T01:09:11;8.23;;;7.53;;
37001;SDS011;22913;51.910;8.374;2023-05-10T01:11:56;8.17;;;7.37;;
37001;SDS011;22913;51.910;8.374;2023-05-10T01:14:42;7.97;;;7.30;;
37001;SDS011;22913;51.910;8.374;2023-05-10T01:17:28;7.73;;;7.03;;
37001;SDS011;22913;51.910;8.374;2023-05-10T01:20:15;8.50;;;7.80;;
37001;SDS011;22913;51.910;8.374;2023-05-10T01:23:09;8.40;;;7.70;;
37001;SDS011;22913;51.910;8.374;2023-05-10T01:26:26;8.43;;;7.73;;
37001;SDS011;22913;51.910;8.374;2023-05-10T01:29:47;8.90;;;8.10;;
37001;SDS011;22913;51.910;8.374;2023-05-10T01:32:49;9.03;;;8.33;;
37001;SDS011;22913;51.910;8.374;2023-05-10T01:35:43;9.60;;;8.80;;
37001;SDS011;22913;51.910;8.374;2023-05-10T01:38:37;9.27;;;8.57;;
37001;SDS011;22913;51.910;8.374;2023-05-10T01:41:28;7.40;;;6.70;;
37001;SDS011;22913;51.910;8.374;2023-05-10T01:44:23;7.63;;;7.03;;
37001;SDS011;22913;51.910;8.374;2023-05-10T01:47:15;6.47;;;5.87;;
37001;SDS011;22913;51.910;8.374;2023-05-10T01:50:06;6.93;;;6.33;;
37001;SDS011;22913;51.910;8.374;2023-05-10T01:52:57;7.37;;;6.73;;
37001;SDS011;22913;51.910;8.374;2023-05-10T01:55:45;6.67;;;6.07;;
37001;SDS011;22913;51.910;8.374;2023-05-10T01:58:33;7.33;;;6.67;;
37001;SDS011;22913;51.910;8.374;2023-05-10T02:01:21;7.00;;;6.40;;
37001;SDS011;22913;51.910;8.374;2023-05-10T02:04:07;6.23;;;5.60;;
37001;SDS011;22913;51.910;8.374;2023-05-10T02:06:56;5.97;;;5.43;;
37001;SDS011;22913;51.910;8.374;2023-05-10T02:09:42;5.87;;;5.37;;
37001;SDS011;22913;51.910;8.374;2023-05-10T02:12:31;6.47;;;5.97;;
37001;SDS011;22913;51.910;8.374;2023-05-10T02:15:20;6.00;;;5.50;;
37001;SDS011;22913;51.910;8.374;2023-05-10T02:18:08;6.50;;;5.90;;
37001;SDS011;22913;51.910;8.374;2023-05-10T02:20:55;6.70;;;6.10;;
37001;SDS011;22913;51.910;8.374;2023-05-10T02:23:43;6.37;;;5.87;;
37001;SDS011;22913;51.910;8.374;2023-05-10T02:26:31;6.00;;;5.50;;
37001;SDS011;22913;51.910;8.374;2023-05-10T02:29:18;7.03;;;6.43;;
37001;SDS011;22913;51.910;8.374;2023-05-10T02:32:06;7.97;;;6.57;;
37001;SDS011;22913;51.910;8.374;2023-05-10T02:34:54;6.83;;;6.23;;
37001;SDS011;22913;51.910;8.374;2023-05-10T02:37:42;7.67;;;6.97;;
37001;SDS011;22913;51.910;8.374;2023-05-10T02:40:31;8.07;;;7.27;;
37001;SDS011;22913;51.910;8.374;2023-05-10T02:43:18;9.30;;;7.00;;
37001;SDS011;22913;51.910;8.374;2023-05-10T02:46:06;8.03;;;7.23;;
37001;SDS011;22913;51.910;8.374;2023-05-10T02:48:52;8.83;;;8.03;;
37001;SDS011;22913;51.910;8.374;2023-05-10T02:51:40;8.10;;;7.40;;
37001;SDS011;22913;51.910;8.374;2023-05-10T02:54:30;9.17;;;8.27;;
37001;SDS011;22913;51.910;8.374;2023-05-10T02:57:21;10.70;;;8.20;;
37001;SDS011;22913;51.910;8.374;2023-05-10T03:00:11;10.00;;;9.07;;
37001;SDS011;22913;51.910;8.374;2023-05-10T03:02:57;9.97;;;8.93;;
37001;SDS011;22913;51.910;8.374;2023-05-10T03:05:43;10.37;;;9.27;;
37001;SDS011;22913;51.910;8.374;2023-05-10T03:08:28;10.40;;;9.40;;
37001;SDS011;22913;51.910;8.374;2023-05-10T03:11:17;10.77;;;9.63;;
37001;SDS011;22913;51.910;8.374;2023-05-10T03:14:21;10.50;;;9.40;;
37001;SDS011;22913;51.910;8.374;2023-05-10T03:17:14;9.90;;;8.90;;
37001;SDS011;22913;51.910;8.374;2023-05-10T03:20:10;9.43;;;8.53;;
37001;SDS011;22913;51.910;8.374;2023-05-10T03:23:00;9.20;;;8.30;;
37001;SDS011;22913;51.910;8.374;2023-05-10T03:25:49;8.50;;;7.70;;
37001;SDS011;22913;51.910;8.374;2023-05-10T03:28:35;8.07;;;7.37;;
37001;SDS011;22913;51.910;8.374;2023-05-10T03:31:23;7.83;;;7.13;;
37001;SDS011;22913;51.910;8.374;2023-05-10T03:34:09;7.10;;;6.40;;
37001;SDS011;22913;51.910;8.374;2023-05-10T03:36:55;7.63;;;6.23;;
37001;SDS011;22913;51.910;8.374;2023-05-10T03:39:40;5.57;;;5.07;;
37001;SDS011;22913;51.910;8.374;2023-05-10T03:42:26;4.90;;;4.50;;
37001;SDS011;22913;51.910;8.374;2023-05-10T03:45:11;4.07;;;3.60;;
37001;SDS011;22913;51.910;8.374;2023-05-10T03:47:59;3.63;;;3.33;;
37001;SDS011;22913;51.910;8.374;2023-05-10T03:50:44;3.20;;;2.80;;
37001;SDS011;22913;51.910;8.374;2023-05-10T03:53:29;2.20;;;2.10;;
37001;SDS011;22913;51.910;8.374;2023-05-10T03:56:15;2.30;;;2.20;;
37001;SDS011;22913;51.910;8.374;2023-05-10T03:59:01;1.93;;;1.83;;
37001;SDS011;22913;51.910;8.374;2023-05-10T04:01:50;1.77;;;1.67;;
37001;SDS011;22913;51.910;8.374;2023-05-10T04:04:37;1.80;;;1.70;;
37001;SDS011;22913;51.910;8.374;2023-05-10T04:07:23;3.87;;;2.03;;
37001;SDS011;22913;51.910;8.374;2023-05-10T04:10:09;1.80;;;1.70;;
37001;SDS011;22913;51.910;8.374;2023-05-10T04:12:55;2.20;;;2.10;;
37001;SDS011;22913;51.910;8.374;2023-05-10T04:15:41;2.20;;;2.10;;
37001;SDS011;22913;51.910;8.374;2023-05-10T04:18:27;2.57;;;2.47;;
37001;SDS011;22913;51.910;8.374;2023-05-10T04:21:14;2.70;;;2.50;;
37001;SDS011;22913;51.910;8.374;2023-05-10T04:23:59;2.30;;;2.20;;
37001;SDS011;22913;51.910;8.374;2023-05-10T04:26:45;2.87;;;2.67;;
37001;SDS011;22913;51.910;8.374;2023-05-10T04:29:30;2.53;;;2.33;;
37001;SDS011;22913;51.910;8.374;2023-05-10T04:32:16;2.70;;;2.50;;
37001;SDS011;22913;51.910;8.374;2023-05-10T04:35:02;2.83;;;2.73;;
37001;SDS011;22913;51.910;8.374;2023-05-10T04:37:49;3.10;;;2.80;;
37001;SDS011;22913;51.910;8.374;2023-05-10T04:40:35;2.77;;;2.57;;
37001;SDS011;22913;51.910;8.374;2023-05-10T04:43:20;3.37;;;3.17;;
37001;SDS011;22913;51.910;8.374;2023-05-10T04:46:06;3.43;;;3.20;;
37001;SDS011;22913;51.910;8.374;2023-05-10T04:48:52;3.10;;;2.90;;
37001;SDS011;22913;51.910;8.374;2023-05-10T04:51:37;3.30;;;3.10;;
37001;SDS011;22913;51.910;8.374;2023-05-10T04:54:24;3.13;;;2.93;;
37001;SDS011;22913;51.910;8.374;2023-05-10T04:57:10;2.90;;;2.70;;
37001;SDS011;22913;51.910;8.374;2023-05-10T04:59:55;3.03;;;2.83;;
37001;SDS011;22913;51.910;8.374;2023-05-10T05:02:42;3.20;;;2.90;;
37001;SDS011;22913;51.910;8.374;2023-05-10T05:05:29;3.23;;;3.03;;
37001;SDS011;22913;51.910;8.374;2023-05-10T05:08:14;2.90;;;2.70;;
37001;SDS011;22913;51.910;8.374;2023-05-10T05:11:01;2.73;;;2.53;;
37001;SDS011;22913;51.910;8.374;2023-05-10T05:13:47;2.47;;;2.37;;
37001;SDS011;22913;51.910;8.374;2023-05-10T05:16:33;2.80;;;2.60;;
37001;SDS011;22913;51.910;8.374;2023-05-10T05:19:18;3.03;;;2.83;;
37001;SDS011;22913;51.910;8.374;2023-05-10T05:22:06;2.97;;;2.77;;
37001;SDS011;22913;51.910;8.374;2023-05-10T05:24:51;2.97;;;2.80;;
37001;SDS011;22913;51.910;8.374;2023-05-10T05:27:38;2.87;;;2.67;;
37001;SDS011;22913;51.910;8.374;2023-05-10T05:30:24;2.70;;;2.50;;
37001;SDS011;22913;51.910;8.374;2023-05-10T05:33:09;2.67;;;2.53;;
37001;SDS011;22913;51.910;8.374;2023-05-10T05:35:55;2.73;;;2.53;;
37001;SDS011;22913;51.910;8.374;2023-05-10T05:38:41;2.87;;;2.67;;
37001;SDS011;22913;51.910;8.374;2023-05-10T05:41:26;3.00;;;2.80;;
37001;SDS011;22913;51.910;8.374;2023-05-10T05:44:13;3.23;;;2.93;;
37001;SDS011;22913;51.910;8.374;2023-05-10T05:46:59;3.10;;;2.80;;
37001;SDS011;22913;51.910;8.374;2023-05-10T05:49:44;3.43;;;3.20;;
37001;SDS011;22913;51.910;8.374;2023-05-10T05:52:30;3.43;;;2.90;;
37001;SDS011;22913;51.910;8.374;2023-05-10T05:55:16;2.80;;;2.60;;
37001;SDS011;22913;51.910;8.374;2023-05-10T05:58:01;2.93;;;2.73;;
37001;SDS011;22913;51.910;8.374;2023-05-10T06:00:48;2.63;;;2.43;;
37001;SDS011;22913;51.910;8.374;2023-05-10T06:03:35;2.97;;;2.77;;
37001;SDS011;22913;51.910;8.374;2023-05-10T06:06:21;2.97;;;2.77;;
37001;SDS011;22913;51.910;8.374;2023-05-10T06:09:06;2.70;;;2.50;;
37001;SDS011;22913;51.910;8.374;2023-05-10T06:11:52;3.20;;;2.97;;
37001;SDS011;22913;51.910;8.374;2023-05-10T06:14:38;2.83;;;2.63;;
37001;SDS011;22913;51.910;8.374;2023-05-10T06:17:25;3.53;;;2.77;;
37001;SDS011;22913;51.910;8.374;2023-05-10T06:20:11;3.20;;;3.00;;
37001;SDS011;22913;51.910;8.374;2023-05-10T06:22:57;3.77;;;3.10;;
37001;SDS011;22913;51.910;8.374;2023-05-10T06:25:43;3.00;;;2.80;;
37001;SDS011;22913;51.910;8.374;2023-05-10T06:28:28;3.20;;;2.90;;
37001;SDS011;22913;51.910;8.374;2023-05-10T06:31:14;5.60;;;3.20;;
37001;SDS011;22913;51.910;8.374;2023-05-10T06:34:03;3.07;;;2.80;;
37001;SDS011;22913;51.910;8.374;2023-05-10T06:36:48;3.60;;;3.30;;
37001;SDS011;22913;51.910;8.374;2023-05-10T06:39:34;4.57;;;3.43;;
37001;SDS011;22913;51.910;8.374;2023-05-10T06:42:19;3.53;;;3.23;;
37001;SDS011;22913;51.910;8.374;2023-05-10T06:45:05;3.57;;;3.37;;
37001;SDS011;22913;51.910;8.374;2023-05-10T06:47:52;4.03;;;3.73;;
37001;SDS011;22913;51.910;8.374;2023-05-10T06:50:39;5.33;;;3.83;;
37001;SDS011;22913;51.910;8.374;2023-05-10T06:53:24;4.37;;;3.97;;
37001;SDS011;22913;51.910;8.374;2023-05-10T06:56:10;4.97;;;4.33;;
37001;SDS011;22913;51.910;8.374;2023-05-10T06:58:55;8.80;;;6.33;;
37001;SDS011;22913;51.910;8.374;2023-05-10T07:01:41;10.37;;;8.10;;
37001;SDS011;22913;51.910;8.374;2023-05-10T07:04:27;16.47;;;10.10;;
37001;SDS011;22913;51.910;8.374;2023-05-10T07:07:14;12.90;;;8.30;;
37001;SDS011;22913;51.910;8.374;2023-05-10T07:10:00;14.83;;;9.27;;
37001;SDS011;22913;51.910;8.374;2023-05-10T07:12:46;15.67;;;9.33;;
37001;SDS011;22913;51.910;8.374;2023-05-10T07:15:31;12.80;;;9.57;;
37001;SDS011;22913;51.910;8.374;2023-05-10T07:18:17;12.87;;;9.10;;
37001;SDS011;22913;51.910;8.374;2023-05-10T07:21:03;15.13;;;9.20;;
37001;SDS011;22913;51.910;8.374;2023-05-10T07:23:50;13.90;;;9.60;;
37001;SDS011;22913;51.910;8.374;2023-05-10T07:26:36;12.37;;;9.37;;
37001;SDS011;22913;51.910;8.374;2023-05-10T07:29:21;11.60;;;8.50;;
37001;SDS011;22913;51.910;8.374;2023-05-10T07:32:07;11.17;;;8.57;;
37001;SDS011;22913;51.910;8.374;2023-05-10T07:34:53;10.83;;;8.40;;
37001;SDS011;22913;51.910;8.374;2023-05-10T07:37:39;10.97;;;8.57;;
37001;SDS011;22913;51.910;8.374;2023-05-10T07:40:26;10.10;;;8.57;;
37001;SDS011;22913;51.910;8.374;2023-05-10T07:43:12;12.73;;;8.77;;
37001;SDS011;22913;51.910;8.374;2023-05-10T07:45:58;13.70;;;9.67;;
37001;SDS011;22913;51.910;8.374;2023-05-10T07:48:43;11.60;;;9.43;;
37001;SDS011;22913;51.910;8.374;2023-05-10T07:51:29;12.30;;;8.83;;
37001;SDS011;22913;51.910;8.374;2023-05-10T07:54:15;11.17;;;9.90;;
37001;SDS011;22913;51.910;8.374;2023-05-10T07:57:02;11.43;;;9.97;;
37001;SDS011;22913;51.910;8.374;2023-05-10T07:59:48;15.67;;;10.63;;
37001;SDS011;22913;51.910;8.374;2023-05-10T08:02:34;16.23;;;10.63;;
37001;SDS011;22913;51.910;8.374;2023-05-10T08:05:20;13.03;;;11.07;;
37001;SDS011;22913;51.910;8.374;2023-05-10T08:08:06;12.17;;;10.87;;
37001;SDS011;22913;51.910;8.374;2023-05-10T08:10:52;12.93;;;11.17;;
37001;SDS011;22913;51.910;8.374;2023-05-10T08:13:39;12.63;;;11.10;;
37001;SDS011;22913;51.910;8.374;2023-05-10T08:16:24;14.67;;;12.07;;
37001;SDS011;22913;51.910;8.374;2023-05-10T08:19:10;15.60;;;13.83;;
37001;SDS011;22913;51.910;8.374;2023-05-10T08:21:55;16.83;;;13.80;;
37001;SDS011;22913;51.910;8.374;2023-05-10T08:24:41;19.40;;;15.20;;
37001;SDS011;22913;51.910;8.374;2023-05-10T08:27:26;15.30;;;13.70;;
37001;SDS011;22913;51.910;8.374;2023-05-10T08:30:14;16.03;;;13.20;;
37001;SDS011;22913;51.910;8.374;2023-05-10T08:33:01;14.27;;;12.63;;
37001;SDS011;22913;51.910;8.374;2023-05-10T08:35:46;14.23;;;12.73;;
37001;SDS011;22913;51.910;8.374;2023-05-10T08:38:32;15.47;;;13.40;;
37001;SDS011;22913;51.910;8.374;2023-05-10T08:41:19;14.93;;;13.40;;
37001;SDS011;22913;51.910;8.374;2023-05-10T08:44:05;18.77;;;14.57;;
37001;SDS011;22913;51.910;8.374;2023-05-10T08:46:54;17.70;;;14.33;;
37001;SDS011;22913;51.910;8.374;2023-05-10T08:49:40;19.37;;;16.17;;
37001;SDS011;22913;51.910;8.374;2023-05-10T08:52:27;19.30;;;15.00;;
37001;SDS011;22913;51.910;8.374;2023-05-10T08:55:14;18.20;;;15.23;;
37001;SDS011;22913;51.910;8.374;2023-05-10T08:58:00;17.63;;;15.73;;
37001;SDS011;22913;51.910;8.374;2023-05-10T09:00:48;19.90;;;16.50;;
37001;SDS011;22913;51.910;8.374;2023-05-10T09:03:36;21.07;;;16.50;;
37001;SDS011;22913;51.910;8.374;2023-05-10T09:06:23;20.87;;;16.27;;
37001;SDS011;22913;51.910;8.374;2023-05-10T09:09:09;20.80;;;16.73;;
37001;SDS011;22913;51.910;8.374;2023-05-10T09:11:55;18.73;;;16.47;;
37001;SDS011;22913;51.910;8.374;2023-05-10T09:14:41;19.87;;;15.77;;
37001;SDS011;22913;51.910;8.374;2023-05-10T09:17:29;20.00;;;16.70;;
37001;SDS011;22913;51.910;8.374;2023-05-10T09:20:16;20.73;;;17.73;;
37001;SDS011;22913;51.910;8.374;2023-05-10T09:23:02;18.90;;;16.90;;
37001;SDS011;22913;51.910;8.374;2023-05-10T09:25:47;19.57;;;17.57;;
37001;SDS011;22913;51.910;8.374;2023-05-10T09:28:50;19.20;;;17.07;;
37001;SDS011;22913;51.910;8.374;2023-05-10T09:31:43;18.17;;;16.27;;
37001;SDS011;22913;51.910;8.374;2023-05-10T09:34:29;18.50;;;16.50;;
37001;SDS011;22913;51.910;8.374;2023-05-10T09:37:17;18.67;;;15.90;;
37001;SDS011;22913;51.910;8.374;2023-05-10T09:40:07;19.07;;;17.03;;
37001;SDS011;22913;51.910;8.374;2023-05-10T09:42:56;18.37;;;16.47;;
37001;SDS011;22913;51.910;8.374;2023-05-10T09:45:43;16.57;;;14.00;;
37001;SDS011;22913;51.910;8.374;2023-05-10T09:48:28;13.50;;;12.20;;
37001;SDS011;22913;51.910;8.374;2023-05-10T09:51:20;13.20;;;11.93;;
37001;SDS011;22913;51.910;8.374;2023-05-10T09:54:11;11.70;;;10.50;;
37001;SDS011;22913;51.910;8.374;2023-05-10T09:56:58;11.00;;;9.90;;
37001;SDS011;22913;51.910;8.374;2023-05-10T09:59:44;11.90;;;10.50;;
37001;SDS011;22913;51.910;8.374;2023-05-10T10:02:29;11.20;;;10.10;;
37001;SDS011;22913;51.910;8.374;2023-05-10T10:05:16;11.50;;;10.40;;
37001;SDS011;22913;51.910;8.374;2023-05-10T10:08:03;11.90;;;10.80;;
37001;SDS011;22913;51.910;8.374;2023-05-10T10:10:51;13.10;;;11.90;;
37001;SDS011;22913;51.910;8.374;2023-05-10T10:13:36;12.33;;;11.03;;
37001;SDS011;22913;51.910;8.374;2023-05-10T10:16:22;12.33;;;10.93;;
37001;SDS011;22913;51.910;8.374;2023-05-10T10:19:09;11.33;;;10.27;;
37001;SDS011;22913;51.910;8.374;2023-05-10T10:21:55;12.03;;;10.83;;
37001;SDS011;22913;51.910;8.374;2023-05-10T10:24:41;12.17;;;10.90;;
37001;SDS011;22913;51.910;8.374;2023-05-10T10:27:28;11.93;;;10.70;;
37001;SDS011;22913;51.910;8.374;2023-05-10T10:30:25;13.43;;;11.63;;
37001;SDS011;22913;51.910;8.374;2023-05-10T10:36:25;13.50;;;10.93;;
37001;SDS011;22913;51.910;8.374;2023-05-10T10:39:11;11.37;;;10.27;;
37001;SDS011;22913;51.910;8.374;2023-05-10T10:41:58;11.53;;;10.43;;
37001;SDS011;22913;51.910;8.374;2023-05-10T10:44:47;11.37;;;10.37;;
37001;SDS011;22913;51.910;8.374;2023-05-10T10:47:33;10.33;;;9.20;;
37001;SDS011;22913;51.910;8.374;2023-05-10T10:50:20;11.17;;;10.07;;
37001;SDS011;22913;51.910;8.374;2023-05-10T10:53:10;9.40;;;8.50;;
37001;SDS011;22913;51.910;8.374;2023-05-10T10:56:06;10.43;;;9.07;;
37001;SDS011;22913;51.910;8.374;2023-05-10T10:58:53;8.50;;;7.37;;
37001;SDS011;22913;51.910;8.374;2023-05-10T11:01:48;8.43;;;7.30;;
37001;SDS011;22913;51.910;8.374;2023-05-10T11:04:43;8.73;;;7.60;;
37001;SDS011;22913;51.910;8.374;2023-05-10T11:07:30;8.63;;;7.83;;
37001;SDS011;22913;51.910;8.374;2023-05-10T11:10:18;9.67;;;8.77;;
37001;SDS011;22913;51.910;8.374;2023-05-10T11:13:05;9.83;;;8.83;;
37001;SDS011;22913;51.910;8.374;2023-05-10T11:15:51;10.60;;;9.50;;
37001;SDS011;22913;51.910;8.374;2023-05-10T11:18:39;9.73;;;8.80;;
37001;SDS011;22913;51.910;8.374;2023-05-10T11:21:25;13.20;;;9.30;;
37001;SDS011;22913;51.910;8.374;2023-05-10T11:24:12;12.37;;;9.53;;
37001;SDS011;22913;51.910;8.374;2023-05-10T11:26:59;12.33;;;10.03;;
37001;SDS011;22913;51.910;8.374;2023-05-10T11:29:45;11.20;;;9.67;;
37001;SDS011;22913;51.910;8.374;2023-05-10T11:32:31;12.37;;;9.83;;
37001;SDS011;22913;51.910;8.374;2023-05-10T11:35:18;12.10;;;10.53;;
37001;SDS011;22913;51.910;8.374;2023-05-10T11:38:04;11.17;;;9.60;;
37001;SDS011;22913;51.910;8.374;2023-05-10T11:40:51;11.93;;;9.67;;
37001;SDS011;22913;51.910;8.374;2023-05-10T11:43:38;14.93;;;10.77;;
37001;SDS011;22913;51.910;8.374;2023-05-10T11:46:24;12.97;;;11.40;;
37001;SDS011;22913;51.910;8.374;2023-05-10T11:49:11;13.60;;;11.20;;
37001;SDS011;22913;51.910;8.374;2023-05-10T11:52:04;12.47;;;11.17;;
37001;SDS011;22913;51.910;8.374;2023-05-10T11:54:51;13.57;;;11.50;;
37001;SDS011;22913;51.910;8.374;2023-05-10T11:57:37;13.40;;;11.80;;
37001;SDS011;22913;51.910;8.374;2023-05-10T12:00:25;11.47;;;10.30;;
37001;SDS011;22913;51.910;8.374;2023-05-10T12:03:11;11.33;;;10.23;;
37001;SDS011;22913;51.910;8.374;2023-05-10T12:05:56;13.57;;;12.07;;
37001;SDS011;22913;51.910;8.374;2023-05-10T12:08:45;13.03;;;10.83;;
37001;SDS011;22913;51.910;8.374;2023-05-10T12:11:31;11.80;;;10.60;;
37001;SDS011;22913;51.910;8.374;2023-05-10T12:14:17;11.23;;;10.13;;
37001;SDS011;22913;51.910;8.374;2023-05-10T12:17:04;12.10;;;10.23;;
37001;SDS011;22913;51.910;8.374;2023-05-10T12:19:50;13.93;;;11.70;;
37001;SDS011;22913;51.910;8.374;2023-05-10T12:22:36;12.53;;;10.73;;
37001;SDS011;22913;51.910;8.374;2023-05-10T12:25:24;14.37;;;10.93;;
37001;SDS011;22913;51.910;8.374;2023-05-10T12:28:14;11.83;;;10.03;;
37001;SDS011;22913;51.910;8.374;2023-05-10T12:31:05;12.93;;;11.10;;
37001;SDS011;22913;51.910;8.374;2023-05-10T12:33:50;13.57;;;10.40;;
37001;SDS011;22913;51.910;8.374;2023-05-10T12:36:38;11.90;;;10.27;;
37001;SDS011;22913;51.910;8.374;2023-05-10T12:39:24;10.03;;;9.03;;
37001;SDS011;22913;51.910;8.374;2023-05-10T12:42:11;11.37;;;10.10;;
37001;SDS011;22913;51.910;8.374;2023-05-10T12:44:56;10.90;;;9.80;;
37001;SDS011;22913;51.910;8.374;2023-05-10T12:47:42;10.50;;;9.03;;
37001;SDS011;22913;51.910;8.374;2023-05-10T12:50:27;10.30;;;8.73;;
37001;SDS011;22913;51.910;8.374;2023-05-10T12:53:13;12.27;;;10.07;;
37001;SDS011;22913;51.910;8.374;2023-05-10T12:56:00;10.43;;;9.27;;
37001;SDS011;22913;51.910;8.374;2023-05-10T12:58:47;11.63;;;10.10;;
37001;SDS011;22913;51.910;8.374;2023-05-10T13:01:33;11.10;;;9.70;;
37001;SDS011;22913;51.910;8.374;2023-05-10T13:04:18;10.87;;;9.87;;
37001;SDS011;22913;51.910;8.374;2023-05-10T13:07:04;11.43;;;10.43;;
37001;SDS011;22913;51.910;8.374;2023-05-10T13:09:49;12.13;;;10.93;;
37001;SDS011;22913;51.910;8.374;2023-05-10T13:12:35;12.40;;;11.10;;
37001;SDS011;22913;51.910;8.374;2023-05-10T13:15:22;12.53;;;10.50;;
37001;SDS011;22913;51.910;8.374;2023-05-10T13:18:07;12.00;;;10.80;;
37001;SDS011;22913;51.910;8.374;2023-05-10T13:20:53;13.60;;;11.93;;
37001;SDS011;22913;51.910;8.374;2023-05-10T13:23:39;16.70;;;11.53;;
37001;SDS011;22913;51.910;8.374;2023-05-10T13:26:25;14.23;;;11.53;;
37001;SDS011;22913;51.910;8.374;2023-05-10T13:29:11;18.07;;;10.00;;
37001;SDS011;22913;51.910;8.374;2023-05-10T13:31:58;14.47;;;11.10;;
37001;SDS011;22913;51.910;8.374;2023-05-10T13:34:43;12.10;;;10.87;;
37001;SDS011;22913;51.910;8.374;2023-05-10T13:37:29;11.80;;;10.50;;
37001;SDS011;22913;51.910;8.374;2023-05-10T13:40:15;11.63;;;10.43;;
37001;SDS011;22913;51.910;8.374;2023-05-10T13:43:01;11.73;;;10.57;;
37001;SDS011;22913;51.910;8.374;2023-05-10T13:45:46;11.17;;;10.07;;
37001;SDS011;22913;51.910;8.374;2023-05-10T13:48:33;15.00;;;9.90;;
37001;SDS011;22913;51.910;8.374;2023-05-10T13:51:20;9.63;;;8.73;;
37001;SDS011;22913;51.910;8.374;2023-05-10T13:54:06;12.03;;;9.50;;
37001;SDS011;22913;51.910;8.374;2023-05-10T13:56:51;10.47;;;9.50;;
37001;SDS011;22913;51.910;8.374;2023-05-10T13:59:37;10.20;;;9.20;;
37001;SDS011;22913;51.910;8.374;2023-05-10T14:02:23;12.17;;;9.03;;
37001;SDS011;22913;51.910;8.374;2023-05-10T14:05:10;10.67;;;9.73;;
37001;SDS011;22913;51.910;8.374;2023-05-10T14:07:56;9.93;;;8.90;;
37001;SDS011;22913;51.910;8.374;2023-05-10T14:10:42;9.87;;;8.97;;
37001;SDS011;22913;51.910;8.374;2023-05-10T14:13:28;10.80;;;9.80;;
37001;SDS011;22913;51.910;8.374;2023-05-10T14:16:13;10.57;;;9.57;;
37001;SDS011;22913;51.910;8.374;2023-05-10T14:18:59;11.13;;;9.93;;
37001;SDS011;22913;51.910;8.374;2023-05-10T14:21:47;11.30;;;10.20;;
37001;SDS011;22913;51.910;8.374;2023-05-10T14:24:32;11.03;;;9.93;;
37001;SDS011;22913;51.910;8.374;2023-05-10T14:27:18;11.27;;;10.20;;
37001;SDS011;22913;51.910;8.374;2023-05-10T14:30:04;12.27;;;11.10;;
37001;SDS011;22913;51.910;8.374;2023-05-10T14:32:51;11.40;;;10.20;;
37001;SDS011;22913;51.910;8.374;2023-05-10T14:35:37;10.77;;;9.80;;
37001;SDS011;22913;51.910;8.374;2023-05-10T14:38:24;11.13;;;10.03;;
37001;SDS011;22913;51.910;8.374;2023-05-10T14:41:10;11.80;;;10.63;;
37001;SDS011;22913;51.910;8.374;2023-05-10T14:43:57;11.03;;;9.93;;
37001;SDS011;22913;51.910;8.374;2023-05-10T14:46:43;11.80;;;10.60;;
37001;SDS011;22913;51.910;8.374;2023-05-10T14:49:29;10.47;;;9.57;;
37001;SDS011;22913;51.910;8.374;2023-05-10T14:52:15;12.23;;;11.03;;
37001;SDS011;22913;51.910;8.374;2023-05-10T14:55:02;11.10;;;10.00;;
37001;SDS011;22913;51.910;8.374;2023-05-10T14:57:48;13.20;;;11.80;;
37001;SDS011;22913;51.910;8.374;2023-05-10T15:00:34;12.53;;;11.33;;
37001;SDS011;22913;51.910;8.374;2023-05-10T15:03:20;12.80;;;11.60;;
37001;SDS011;22913;51.910;8.374;2023-05-10T15:06:06;12.00;;;10.90;;
37001;SDS011;22913;51.910;8.374;2023-05-10T15:08:52;11.67;;;10.20;;
37001;SDS011;22913;51.910;8.374;2023-05-10T15:11:39;10.73;;;9.70;;
37001;SDS011;22913;51.910;8.374;2023-05-10T15:14:25;10.50;;;9.60;;
37001;SDS011;22913;51.910;8.374;2023-05-10T15:17:11;10.87;;;9.87;;
37001;SDS011;22913;51.910;8.374;2023-05-10T15:19:56;10.53;;;9.37;;
37001;SDS011;22913;51.910;8.374;2023-05-10T15:22:42;10.90;;;9.77;;
37001;SDS011;22913;51.910;8.374;2023-05-10T15:25:28;11.13;;;10.03;;
37001;SDS011;22913;51.910;8.374;2023-05-10T15:28:15;10.77;;;9.67;;
37001;SDS011;22913;51.910;8.374;2023-05-10T15:31:00;10.67;;;9.60;;
37001;SDS011;22913;51.910;8.374;2023-05-10T15:33:46;12.03;;;10.83;;
37001;SDS011;22913;51.910;8.374;2023-05-10T15:36:31;9.80;;;8.80;;
37001;SDS011;22913;51.910;8.374;2023-05-10T15:39:17;9.27;;;8.30;;
37001;SDS011;22913;51.910;8.374;2023-05-10T15:42:04;8.20;;;7.43;;
37001;SDS011;22913;51.910;8.374;2023-05-10T15:44:51;7.63;;;6.93;;
37001;SDS011;22913;51.910;8.374;2023-05-10T15:47:36;9.07;;;8.13;;
37001;SDS011;22913;51.910;8.374;2023-05-10T15:50:23;10.70;;;9.60;;
37001;SDS011;22913;51.910;8.374;2023-05-10T15:53:08;10.30;;;9.30;;
37001;SDS011;22913;51.910;8.374;2023-05-10T15:55:54;10.77;;;9.27;;
37001;SDS011;22913;51.910;8.374;2023-05-10T15:58:40;10.03;;;9.03;;
37001;SDS011;22913;51.910;8.374;2023-05-10T16:01:27;10.53;;;9.60;;
37001;SDS011;22913;51.910;8.374;2023-05-10T16:04:13;10.60;;;9.60;;
37001;SDS011;22913;51.910;8.374;2023-05-10T16:06:59;10.40;;;9.20;;
37001;SDS011;22913;51.910;8.374;2023-05-10T16:09:45;10.47;;;9.47;;
37001;SDS011;22913;51.910;8.374;2023-05-10T16:12:32;10.30;;;9.27;;
37001;SDS011;22913;51.910;8.374;2023-05-10T16:15:18;10.60;;;9.17;;
37001;SDS011;22913;51.910;8.374;2023-05-10T16:18:06;11.97;;;9.47;;
37001;SDS011;22913;51.910;8.374;2023-05-10T16:20:51;11.63;;;9.97;;
37001;SDS011;22913;51.910;8.374;2023-05-10T16:23:37;12.10;;;9.73;;
37001;SDS011;22913;51.910;8.374;2023-05-10T16:26:23;11.30;;;9.97;;
37001;SDS011;22913;51.910;8.374;2023-05-10T16:29:09;11.63;;;10.40;;
37001;SDS011;22913;51.910;8.374;2023-05-10T16:31:55;14.00;;;12.63;;
37001;SDS011;22913;51.910;8.374;2023-05-10T16:34:41;14.70;;;13.20;;
37001;SDS011;22913;51.910;8.374;2023-05-10T16:37:27;16.43;;;14.80;;